Time;durP1;ratioP1;P1;durP2;ratioP2;P2;SDS_P1;SDS_P2;PMS_P1;PMS_P2;Temp;Humidity;BMP_temperature;BMP_pressure;BME280_temperature;BME280_humidity;BME280_pressure;Samples;Min_cycle;Max_cycle;Signal;HPM_P1;HPM_P2
2021/03/05 00:00:43;;;;;;;4.43;0.93;;;23.30;46.30;;;;;;5173751;28;20037;-75
2021/03/05 00:03:15;;;;;;;7.05;1.30;;;23.10;47.40;;;;;;5187001;28;20034;-75
2021/03/05 00:05:45;;;;;;;2.70;1.10;;;22.90;47.90;;;;;;5190643;28;20027;-74
2021/03/05 00:08:16;;;;;;;3.55;1.10;;;22.70;48.30;;;;;;5224989;28;20032;-74
2021/03/05 00:10:47;;;;;;;2.28;1.13;;;22.50;48.40;;;;;;5202119;28;20036;-74
2021/03/05 00:13:19;;;;;;;3.05;1.00;;;22.30;49.30;;;;;;5203179;23;20132;-76
2021/03/05 00:15:50;;;;;;;2.97;0.70;;;22.10;49.40;;;;;;5181866;28;20034;-76
2021/03/05 00:18:20;;;;;;;5.60;1.00;;;22.00;50.00;;;;;;5181100;28;20125;-76
2021/03/05 00:20:52;;;;;;;6.03;1.15;;;21.90;50.10;;;;;;5184061;28;20034;-75
2021/03/05 00:23:22;;;;;;;5.18;1.00;;;21.80;50.50;;;;;;5192909;28;20454;-77
2021/03/05 00:25:53;;;;;;;3.38;1.05;;;21.70;51.40;;;;;;5179608;28;20038;-77
2021/03/05 00:28:23;;;;;;;4.05;0.75;;;21.60;51.10;;;;;;5179279;28;20034;-75
2021/03/05 00:30:54;;;;;;;9.82;1.38;;;21.60;51.20;;;;;;5162858;28;20469;-75
2021/03/05 00:33:24;;;;;;;2.58;1.00;;;21.50;51.50;;;;;;5147131;28;20056;-77
2021/03/05 00:35:55;;;;;;;2.05;0.70;;;21.40;52.30;;;;;;5156449;28;20030;-76
2021/03/05 00:38:25;;;;;;;3.05;0.95;;;21.40;52.00;;;;;;5146145;28;20030;-76
2021/03/05 00:40:56;;;;;;;2.20;0.80;;;21.30;51.80;;;;;;5177890;28;20026;-77
2021/03/05 00:43:27;;;;;;;2.97;0.80;;;21.30;52.20;;;;;;5156504;28;20488;-77
2021/03/05 00:45:57;;;;;;;3.60;0.95;;;21.30;52.80;;;;;;5188981;28;20496;-77
2021/03/05 00:48:28;;;;;;;3.10;1.02;;;21.20;52.60;;;;;;5186380;28;20029;-77
2021/03/05 00:50:58;;;;;;;4.43;1.00;;;21.20;52.70;;;;;;5159432;28;20076;-77
2021/03/05 00:53:29;;;;;;;4.22;0.80;;;21.20;53.00;;;;;;5181811;28;20042;-76
2021/03/05 00:55:59;;;;;;;5.65;0.90;;;21.20;53.20;;;;;;5172253;28;20037;-77
2021/03/05 00:58:30;;;;;;;4.05;0.82;;;21.20;53.20;;;;;;5161243;28;20030;-77
2021/03/05 01:01:00;;;;;;;1.85;0.77;;;21.20;53.20;;;;;;5182028;28;20038;-77
2021/03/05 01:03:31;;;;;;;2.55;0.60;;;21.10;53.20;;;;;;5169074;28;20164;-76
2021/03/05 01:06:02;;;;;;;2.30;0.80;;;21.10;53.30;;;;;;5187016;28;20032;-76
2021/03/05 01:08:32;;;;;;;7.90;0.82;;;21.10;53.50;;;;;;5162748;28;20052;-77
2021/03/05 01:11:03;;;;;;;3.55;0.82;;;21.10;53.80;;;;;;5183233;28;20408;-77
2021/03/05 01:13:33;;;;;;;4.63;0.90;;;21.10;53.60;;;;;;5182409;28;20041;-77
2021/03/05 01:16:04;;;;;;;5.30;0.85;;;21.10;53.60;;;;;;5182285;28;20107;-76
2021/03/05 01:18:35;;;;;;;11.45;0.95;;;21.10;53.70;;;;;;5169718;28;20025;-77
2021/03/05 01:21:05;;;;;;;5.05;0.70;;;21.10;53.70;;;;;;5204149;28;20032;-77
2021/03/05 01:23:36;;;;;;;4.38;0.90;;;21.10;53.70;;;;;;5189065;28;20041;-76
2021/03/05 01:26:09;;;;;;;2.63;0.88;;;21.10;53.70;;;;;;5154611;28;20096;-77
2021/03/05 01:28:40;;;;;;;4.30;1.20;;;21.10;53.70;;;;;;5186646;28;20105;-76
2021/03/05 01:31:13;;;;;;;2.78;0.70;;;21.10;53.90;;;;;;5165305;28;20039;-74
2021/03/05 01:33:43;;;;;;;3.58;0.88;;;21.00;53.70;;;;;;5184254;28;20045;-78
2021/03/05 01:36:14;;;;;;;4.00;0.73;;;21.00;53.70;;;;;;5210532;28;20037;-77
2021/03/05 01:38:44;;;;;;;5.45;0.80;;;21.00;53.80;;;;;;5196419;28;20042;-77
2021/03/05 01:41:15;;;;;;;2.97;0.80;;;21.00;54.00;;;;;;5199015;28;20029;-77
2021/03/05 01:43:45;;;;;;;3.78;0.77;;;21.00;54.00;;;;;;5203163;28;20044;-76
2021/03/05 01:46:18;;;;;;;1.92;0.70;;;21.00;54.00;;;;;;5188041;28;20042;-77
2021/03/05 01:48:48;;;;;;;4.57;0.80;;;21.00;54.00;;;;;;5192353;28;20037;-76
2021/03/05 01:51:21;;;;;;;2.92;0.90;;;21.00;54.00;;;;;;5174978;28;20549;-76
2021/03/05 01:53:51;;;;;;;3.70;0.80;;;21.00;54.60;;;;;;5170814;28;20032;-77
2021/03/05 01:56:29;;;;;;;11.57;1.20;;;21.00;54.00;;;;;;5199636;28;20034;-77
2021/03/05 01:58:59;;;;;;;9.18;1.00;;;21.00;54.80;;;;;;5187472;28;20025;-77
2021/03/05 02:01:31;;;;;;;8.25;1.20;;;21.00;54.30;;;;;;5178206;28;20037;-76
2021/03/05 02:04:02;;;;;;;3.78;0.90;;;20.90;54.40;;;;;;5187696;28;20127;-75
2021/03/05 02:06:33;;;;;;;2.70;0.85;;;20.90;54.40;;;;;;5173037;28;20511;-76
2021/03/05 02:09:04;;;;;;;6.05;0.93;;;20.90;54.30;;;;;;5187624;28;20030;-76
2021/03/05 02:11:35;;;;;;;3.28;0.80;;;20.90;54.30;;;;;;5184738;28;20373;-76
2021/03/05 02:14:06;;;;;;;2.50;0.80;;;20.90;54.20;;;;;;5202737;28;20029;-76
2021/03/05 02:16:46;;;;;;;7.03;0.90;;;20.90;54.20;;;;;;5170596;28;20033;-77
2021/03/05 02:19:35;;;;;;;5.97;0.80;;;20.90;54.10;;;;;;5173881;28;20419;-78
2021/03/05 02:22:32;;;;;;;6.57;0.73;;;20.90;54.10;;;;;;5187097;28;20029;-76
2021/03/05 02:25:26;;;;;;;4.53;0.70;;;20.90;54.10;;;;;;5186724;28;20373;-77
2021/03/05 02:28:18;;;;;;;4.13;0.82;;;20.90;54.10;;;;;;5173947;28;20046;-76
2021/03/05 02:31:14;;;;;;;3.00;0.95;;;20.80;54.10;;;;;;5166145;28;20042;-77
2021/03/05 02:33:50;;;;;;;5.97;0.93;;;20.80;54.10;;;;;;5177336;28;20037;-76
2021/03/05 02:36:23;;;;;;;6.60;0.98;;;20.80;54.20;;;;;;5195456;28;20029;-77
2021/03/05 02:39:20;;;;;;;4.50;0.70;;;20.80;54.20;;;;;;5188176;28;20037;-77
2021/03/05 02:41:55;;;;;;;3.92;0.85;;;20.80;54.20;;;;;;5180241;28;20578;-77
2021/03/05 02:44:28;;;;;;;3.80;0.70;;;20.80;54.40;;;;;;5198960;28;20041;-76
2021/03/05 02:47:01;;;;;;;5.78;0.70;;;20.80;54.40;;;;;;5171862;28;20049;-77
2021/03/05 02:49:33;;;;;;;2.95;0.80;;;20.80;54.40;;;;;;5163847;28;20597;-77
2021/03/05 02:52:12;;;;;;;3.95;0.75;;;20.80;54.40;;;;;;5187667;28;20039;-77
2021/03/05 02:54:43;;;;;;;8.20;1.00;;;20.80;54.40;;;;;;5196543;28;20029;-77
2021/03/05 02:57:15;;;;;;;4.40;0.85;;;20.80;54.40;;;;;;5176296;28;20014;-76
2021/03/05 02:59:46;;;;;;;6.20;0.90;;;20.80;54.30;;;;;;5181318;28;20033;-76
2021/03/05 03:02:16;;;;;;;7.10;0.82;;;20.80;54.30;;;;;;5203453;28;20526;-77
2021/03/05 03:04:47;;;;;;;2.92;0.75;;;20.80;54.40;;;;;;5170772;28;20046;-77
2021/03/05 03:07:17;;;;;;;7.85;0.80;;;20.80;54.50;;;;;;5185316;28;20447;-77
2021/03/05 03:09:48;;;;;;;3.10;0.70;;;20.80;54.30;;;;;;5180955;28;20075;-77
2021/03/05 03:12:18;;;;;;;3.83;0.93;;;20.90;55.10;;;;;;5186260;28;20388;-77
2021/03/05 03:14:49;;;;;;;5.85;0.80;;;20.80;54.40;;;;;;5134542;28;20504;-77
2021/03/05 03:17:19;;;;;;;3.83;0.70;;;20.80;54.30;;;;;;5183712;28;20111;-77
2021/03/05 03:19:50;;;;;;;3.47;0.90;;;20.80;54.40;;;;;;5161505;28;20153;-76
2021/03/05 03:22:21;;;;;;;1.38;0.68;;;20.80;54.30;;;;;;5196352;28;20033;-77
2021/03/05 03:24:51;;;;;;;2.47;0.65;;;20.80;54.30;;;;;;5188096;28;20491;-76
2021/03/05 03:27:22;;;;;;;2.92;0.68;;;20.80;54.30;;;;;;5184536;28;20060;-77
2021/03/05 03:29:53;;;;;;;3.53;0.70;;;20.70;54.30;;;;;;5185383;28;20028;-77
2021/03/05 03:32:23;;;;;;;3.38;0.80;;;20.80;54.30;;;;;;5201706;28;20399;-77
2021/03/05 03:34:54;;;;;;;2.30;0.80;;;20.70;54.30;;;;;;5185760;28;20026;-77
2021/03/05 03:37:24;;;;;;;2.15;0.75;;;20.70;54.30;;;;;;5185471;28;20030;-77
2021/03/05 03:39:55;;;;;;;1.38;0.60;;;20.70;54.40;;;;;;5183826;28;20591;-77
2021/03/05 03:42:26;;;;;;;2.92;0.70;;;20.70;54.40;;;;;;5178957;28;20037;-76
2021/03/05 03:44:56;;;;;;;4.47;0.77;;;20.70;54.50;;;;;;5171106;28;20018;-75
2021/03/05 03:47:27;;;;;;;1.33;0.63;;;20.80;54.50;;;;;;5185350;28;20515;-77
2021/03/05 03:49:58;;;;;;;1.35;0.45;;;20.80;54.50;;;;;;5169563;28;20067;-77
2021/03/05 03:52:33;;;;;;;2.33;0.70;;;20.70;55.10;;;;;;5184889;28;20029;-76
2021/03/05 03:55:06;;;;;;;1.45;0.77;;;20.70;54.50;;;;;;5194134;28;20500;-77
2021/03/05 03:57:40;;;;;;;2.70;0.70;;;20.70;54.50;;;;;;5182887;28;20119;-77
2021/03/05 04:00:11;;;;;;;9.02;1.15;;;20.70;54.50;;;;;;5196450;28;20021;-77
2021/03/05 04:02:46;;;;;;;2.65;0.68;;;20.70;55.00;;;;;;5186130;28;20087;-77
2021/03/05 04:05:21;;;;;;;2.55;0.80;;;20.80;55.00;;;;;;5173100;28;20029;-78
2021/03/05 04:07:51;;;;;;;4.50;0.65;;;20.80;55.00;;;;;;5182450;28;20034;-77
2021/03/05 04:10:22;;;;;;;3.38;0.75;;;20.80;54.80;;;;;;5194387;28;20029;-77
2021/03/05 04:12:52;;;;;;;4.53;0.82;;;20.80;54.80;;;;;;5185669;28;20143;-77
2021/03/05 04:15:23;;;;;;;3.92;0.73;;;20.70;54.70;;;;;;5172755;28;20101;-76
2021/03/05 04:17:54;;;;;;;4.05;1.00;;;20.70;54.80;;;;;;5182836;28;20026;-77
2021/03/05 04:20:25;;;;;;;3.45;0.70;;;20.70;54.80;;;;;;5179092;28;20033;-77
2021/03/05 04:22:56;;;;;;;2.88;0.85;;;20.70;54.70;;;;;;5153671;28;20065;-77
2021/03/05 04:25:26;;;;;;;2.25;0.73;;;20.70;54.70;;;;;;5193349;28;20085;-77
2021/03/05 04:27:57;;;;;;;4.18;0.63;;;20.80;54.80;;;;;;5182969;28;20022;-77
2021/03/05 04:30:27;;;;;;;3.25;0.70;;;20.70;54.80;;;;;;5165744;28;20065;-76
2021/03/05 04:32:58;;;;;;;3.72;0.90;;;20.70;54.80;;;;;;5182301;28;20030;-77
2021/03/05 04:35:28;;;;;;;4.72;0.85;;;20.70;54.80;;;;;;5183489;28;20032;-76
2021/03/05 04:37:59;;;;;;;2.08;0.60;;;20.70;55.50;;;;;;5182809;28;20022;-77
2021/03/05 04:40:29;;;;;;;4.20;0.82;;;20.70;54.80;;;;;;5166585;28;20049;-75
2021/03/05 04:43:00;;;;;;;2.15;0.77;;;20.70;54.70;;;;;;5182293;28;20054;-77
2021/03/05 04:45:30;;;;;;;1.80;0.70;;;20.70;54.50;;;;;;5167012;28;20102;-77
2021/03/05 04:48:01;;;;;;;1.58;0.60;;;20.70;54.50;;;;;;5166662;28;20473;-77
2021/03/05 04:50:31;;;;;;;2.65;0.85;;;20.70;54.50;;;;;;5185047;28;20104;-77
2021/03/05 04:53:03;;;;;;;2.60;0.90;;;20.70;54.40;;;;;;5165513;28;20045;-76
2021/03/05 04:55:33;;;;;;;2.80;0.85;;;20.70;54.40;;;;;;5188565;28;20603;-76
2021/03/05 04:58:04;;;;;;;3.42;0.80;;;20.70;54.30;;;;;;5190537;28;20027;-77
2021/03/05 05:00:35;;;;;;;3.92;0.70;;;20.80;54.40;;;;;;5182258;28;20045;-76
2021/03/05 05:03:05;;;;;;;6.53;0.93;;;20.70;54.40;;;;;;5169511;28;20033;-77
2021/03/05 05:05:37;;;;;;;6.53;1.00;;;20.70;54.50;;;;;;5195517;28;20025;-77
2021/03/05 05:08:07;;;;;;;2.67;0.70;;;20.70;54.60;;;;;;5187751;28;20026;-75
2021/03/05 05:10:38;;;;;;;2.15;0.70;;;20.70;54.60;;;;;;5170060;28;20096;-76
2021/03/05 05:13:08;;;;;;;1.20;0.60;;;20.60;54.50;;;;;;5189541;28;20083;-76
2021/03/05 05:15:39;;;;;;;0.88;0.60;;;20.70;55.10;;;;;;5188452;28;20088;-77
2021/03/05 05:18:09;;;;;;;1.15;0.70;;;20.70;54.60;;;;;;5189431;28;20037;-77
2021/03/05 05:20:40;;;;;;;18.77;0.90;;;20.70;54.60;;;;;;5165296;28;20388;-76
2021/03/05 05:23:10;;;;;;;5.57;0.80;;;20.70;54.80;;;;;;5186815;28;20439;-76
2021/03/05 05:25:41;;;;;;;3.00;0.75;;;20.70;54.70;;;;;;5181477;28;20037;-77
2021/03/05 05:28:11;;;;;;;1.73;0.80;;;20.70;54.60;;;;;;5188967;28;20437;-76
2021/03/05 05:30:42;;;;;;;4.63;0.95;;;20.70;54.60;;;;;;5163859;28;20050;-77
2021/03/05 05:33:12;;;;;;;4.28;0.73;;;20.70;54.60;;;;;;5189427;28;20025;-76
2021/03/05 05:35:43;;;;;;;3.50;0.70;;;20.70;54.60;;;;;;5188839;28;20032;-77
2021/03/05 05:38:13;;;;;;;4.90;0.90;;;20.70;54.50;;;;;;5190408;28;20062;-76
2021/03/05 05:40:44;;;;;;;23.70;1.17;;;20.70;54.60;;;;;;5178016;28;20036;-76
2021/03/05 05:43:14;;;;;;;9.45;1.42;;;20.80;55.00;;;;;;5172914;28;20026;-76
2021/03/05 05:45:45;;;;;;;14.20;1.17;;;20.80;54.70;;;;;;5179857;28;20041;-77
2021/03/05 05:48:16;;;;;;;27.67;1.77;;;20.80;54.50;;;;;;5203092;28;20030;-77
2021/03/05 05:50:46;;;;;;;17.60;1.42;;;20.80;54.90;;;;;;5174242;28;20053;-74
2021/03/05 05:53:17;;;;;;;15.52;1.17;;;20.90;54.80;;;;;;5177295;28;20021;-73
2021/03/05 05:55:47;;;;;;;9.75;1.02;;;20.90;54.80;;;;;;5187337;28;20057;-75
2021/03/05 05:58:18;;;;;;;18.77;1.73;;;20.90;54.70;;;;;;5185644;28;20107;-76
2021/03/05 06:00:48;;;;;;;16.80;1.30;;;21.00;54.20;;;;;;5168310;28;20030;-74
2021/03/05 06:03:19;;;;;;;19.73;1.40;;;21.20;53.60;;;;;;5152727;28;20084;-74
2021/03/05 06:05:49;;;;;;;15.10;1.20;;;21.30;53.00;;;;;;5170167;28;20022;-74
2021/03/05 06:08:20;;;;;;;12.48;1.45;;;21.40;52.50;;;;;;5168322;28;20032;-74
2021/03/05 06:10:54;;;;;;;17.98;1.50;;;21.60;52.10;;;;;;5171862;28;20014;-73
2021/03/05 06:13:25;;;;;;;15.25;1.67;;;21.70;51.60;;;;;;5163572;28;20042;-76
2021/03/05 06:16:16;;;;;;;19.55;1.20;;;21.80;51.00;;;;;;5161428;28;20034;-74
2021/03/05 06:18:46;;;;;;;14.13;1.13;;;21.90;50.70;;;;;;5168763;28;20441;-74
2021/03/05 06:21:17;;;;;;;13.98;1.48;;;22.00;50.40;;;;;;5186150;28;20100;-75
2021/03/05 06:23:58;;;;;;;8.38;0.95;;;22.20;50.00;;;;;;5169711;28;20037;-74
2021/03/05 06:26:28;;;;;;;7.75;1.20;;;22.20;49.70;;;;;;5189996;28;20025;-75
2021/03/05 06:29:04;;;;;;;4.40;1.13;;;22.40;49.20;;;;;;5188107;28;20045;-75
2021/03/05 06:31:34;;;;;;;6.15;1.52;;;22.60;49.00;;;;;;5168141;28;20100;-74
2021/03/05 06:34:05;;;;;;;6.47;0.90;;;22.60;48.80;;;;;;5168213;28;20026;-74
2021/03/05 06:36:36;;;;;;;10.50;1.30;;;22.70;48.60;;;;;;5198336;28;20053;-74
2021/03/05 06:39:06;;;;;;;7.15;1.05;;;22.70;48.40;;;;;;5173039;28;20492;-74
2021/03/05 06:41:37;;;;;;;9.80;1.20;;;22.70;48.30;;;;;;5173198;28;20518;-74
2021/03/05 06:44:07;;;;;;;9.82;1.08;;;22.60;48.50;;;;;;5205371;28;20022;-76
2021/03/05 06:46:41;;;;;;;18.55;2.45;;;22.60;48.30;;;;;;5151920;28;20464;-76
2021/03/05 06:49:13;;;;;;;8.73;1.20;;;22.70;49.00;;;;;;5166067;28;20077;-74
2021/03/05 06:51:51;;;;;;;6.13;1.23;;;22.70;48.20;;;;;;5159827;28;20124;-73
2021/03/05 06:54:28;;;;;;;8.43;1.00;;;22.80;48.10;;;;;;5185386;28;20064;-74
2021/03/05 06:56:58;;;;;;;9.45;1.20;;;22.70;47.90;;;;;;5167248;28;20080;-75
2021/03/05 06:59:42;;;;;;;9.38;0.85;;;22.80;47.80;;;;;;5172478;28;20448;-74
2021/03/05 07:02:15;;;;;;;5.57;0.90;;;22.80;47.90;;;;;;5195146;28;20049;-74
2021/03/05 07:04:49;;;;;;;7.07;1.05;;;22.70;47.90;;;;;;5184338;28;20121;-74
2021/03/05 07:07:20;;;;;;;6.93;0.90;;;22.70;47.90;;;;;;5168258;28;20028;-75
2021/03/05 07:09:54;;;;;;;6.03;0.93;;;22.70;47.90;;;;;;5177872;28;20492;-75
2021/03/05 07:12:25;;;;;;;5.75;1.25;;;22.70;47.90;;;;;;5184458;28;20523;-76
2021/03/05 07:15:04;;;;;;;2.92;0.70;;;22.70;47.80;;;;;;5188115;28;20091;-74
2021/03/05 07:17:35;;;;;;;2.85;0.90;;;22.60;47.80;;;;;;5176902;28;20079;-74
2021/03/05 07:20:06;;;;;;;3.88;0.80;;;22.50;47.80;;;;;;5173850;28;20452;-74
2021/03/05 07:22:36;;;;;;;4.63;0.65;;;22.60;47.80;;;;;;5184332;28;20030;-75
2021/03/05 07:25:07;;;;;;;7.50;0.70;;;22.50;47.80;;;;;;5184120;28;20523;-75
2021/03/05 07:27:38;;;;;;;1.92;0.95;;;22.50;47.80;;;;;;5183386;28;20062;-74
2021/03/05 07:30:16;;;;;;;4.13;0.80;;;22.50;47.70;;;;;;5187494;28;20119;-74
2021/03/05 07:32:47;;;;;;;7.20;0.93;;;22.50;47.60;;;;;;5183969;28;20085;-73
2021/03/05 07:35:30;;;;;;;3.17;0.90;;;22.50;47.50;;;;;;5185095;28;20022;-74
2021/03/05 07:38:03;;;;;;;5.00;0.70;;;22.60;47.30;;;;;;5170541;28;20033;-74
2021/03/05 07:40:34;;;;;;;3.00;0.70;;;22.50;47.50;;;;;;5169429;28;20105;-75
2021/03/05 07:43:05;;;;;;;1.80;0.77;;;22.50;47.40;;;;;;5179765;28;20038;-73
2021/03/05 07:45:36;;;;;;;4.88;0.95;;;22.50;47.30;;;;;;5200322;28;20057;-74
2021/03/05 07:48:10;;;;;;;2.08;0.82;;;22.40;47.40;;;;;;5185005;28;20040;-76
2021/03/05 07:50:41;;;;;;;2.63;1.07;;;22.40;47.40;;;;;;5156782;28;20080;-72
2021/03/05 07:53:12;;;;;;;3.25;0.80;;;22.50;47.20;;;;;;5181529;28;20026;-74
2021/03/05 07:55:43;;;;;;;2.47;0.73;;;22.60;47.00;;;;;;5183540;28;20538;-74
2021/03/05 07:58:46;;;;;;;3.47;0.75;;;22.70;46.40;;;;;;5182935;28;20480;-74
2021/03/05 08:01:16;;;;;;;5.78;1.35;;;22.60;46.50;;;;;;5150130;28;20034;-74
2021/03/05 08:03:54;;;;;;;83.00;13.10;;;22.60;47.50;;;;;;5191918;28;20381;-74
2021/03/05 08:06:28;;;;;;;58.90;9.75;;;22.80;51.90;;;;;;5201649;28;20377;-74
2021/03/05 08:09:08;;;;;;;48.93;7.90;;;23.00;51.80;;;;;;5170179;28;20029;-74
2021/03/05 08:11:39;;;;;;;47.78;7.95;;;23.00;51.50;;;;;;5185284;28;20025;-74
2021/03/05 08:14:19;;;;;;;38.60;7.20;;;22.90;51.60;;;;;;5178607;28;20034;-74
2021/03/05 08:16:50;;;;;;;45.22;7.78;;;23.00;51.70;;;;;;5166654;28;20044;-74
2021/03/05 08:19:20;;;;;;;41.95;7.97;;;23.20;51.20;;;;;;5144091;28;20042;-74
2021/03/05 08:21:51;;;;;;;43.65;7.75;;;23.20;51.20;;;;;;5186502;28;20041;-75
2021/03/05 08:24:25;;;;;;;35.28;7.85;;;23.30;50.90;;;;;;5192948;28;20031;-74
2021/03/05 08:27:07;;;;;;;34.25;6.72;;;23.30;51.00;;;;;;5171990;28;20064;-74
2021/03/05 08:30:05;;;;;;;26.75;6.32;;;23.20;50.90;;;;;;5190368;28;20041;-74
2021/03/05 08:32:36;;;;;;;29.38;6.20;;;23.00;51.30;;;;;;5162647;28;20026;-75
2021/03/05 08:35:08;;;;;;;19.90;4.97;;;22.80;51.60;;;;;;5203631;28;20138;-74
2021/03/05 08:37:46;;;;;;;26.45;5.32;;;22.70;51.90;;;;;;5201697;28;20459;-74
2021/03/05 08:40:16;;;;;;;18.70;4.60;;;22.60;51.90;;;;;;5214131;28;20070;-74
2021/03/05 08:42:48;;;;;;;23.75;5.20;;;22.70;51.40;;;;;;5191318;28;20088;-74
2021/03/05 08:45:20;;;;;;;21.55;5.00;;;22.60;51.40;;;;;;5181374;28;20034;-75
2021/03/05 08:48:00;;;;;;;23.83;5.22;;;22.60;51.30;;;;;;5191306;28;20518;-74
2021/03/05 08:50:32;;;;;;;20.50;4.97;;;22.60;51.00;;;;;;5203452;28;20028;-75
2021/03/05 08:53:07;;;;;;;24.73;4.90;;;22.70;50.70;;;;;;5182722;28;20079;-77
2021/03/05 08:55:39;;;;;;;16.80;4.80;;;22.70;50.40;;;;;;5189256;28;20028;-77
2021/03/05 08:58:09;;;;;;;19.40;4.68;;;22.60;50.40;;;;;;5206796;28;20037;-78
2021/03/05 09:00:40;;;;;;;12.65;4.38;;;22.50;50.70;;;;;;5216185;28;20039;-81
2021/03/05 09:03:12;;;;;;;11.65;3.10;;;22.20;50.40;;;;;;5202542;28;20093;-78
2021/03/05 09:05:44;;;;;;;11.68;3.40;;;22.10;49.90;;;;;;5200092;28;20044;-78
2021/03/05 09:08:16;;;;;;;14.52;3.95;;;21.90;50.00;;;;;;5211116;28;20112;-79
2021/03/05 09:10:55;;;;;;;13.38;3.58;;;21.70;50.50;;;;;;5224961;28;20032;-78
2021/03/05 09:13:28;;;;;;;13.35;3.30;;;21.50;50.40;;;;;;5196812;28;20124;-79
2021/03/05 09:16:00;;;;;;;8.65;2.88;;;21.40;50.80;;;;;;5215697;28;20113;-78
2021/03/05 09:18:34;;;;;;;12.63;3.22;;;21.00;48.80;;;;;;5211613;28;20097;-78
2021/03/05 09:21:06;;;;;;;10.13;3.00;;;20.70;51.20;;;;;;5190683;28;20510;-77
2021/03/05 09:23:37;;;;;;;12.95;3.30;;;20.50;51.50;;;;;;5197044;28;20425;-78
2021/03/05 09:26:15;;;;;;;8.80;2.90;;;20.40;52.00;;;;;;5210189;28;20438;-77
2021/03/05 09:28:50;;;;;;;9.50;2.75;;;20.40;52.30;;;;;;5195318;28;20570;-78
2021/03/05 09:31:24;;;;;;;11.70;2.88;;;20.30;52.90;;;;;;5201614;28;20060;-79
2021/03/05 09:33:55;;;;;;;8.30;2.40;;;20.30;51.30;;;;;;5229151;28;20033;-78
2021/03/05 09:36:26;;;;;;;7.50;3.10;;;20.20;51.80;;;;;;5197384;28;20030;-77
2021/03/05 09:38:59;;;;;;;11.45;2.60;;;20.20;52.00;;;;;;5190685;28;20042;-78
2021/03/05 09:41:30;;;;;;;6.00;2.22;;;20.10;51.70;;;;;;5209313;28;20104;-78
2021/03/05 09:44:08;;;;;;;9.77;2.63;;;20.20;51.50;;;;;;5198744;28;20121;-79
2021/03/05 09:46:39;;;;;;;5.93;2.10;;;20.10;51.70;;;;;;5214602;28;20025;-80
2021/03/05 09:49:23;;;;;;;8.05;2.00;;;20.10;51.00;;;;;;5213618;28;20094;-79
2021/03/05 09:51:54;;;;;;;7.50;2.60;;;20.10;50.80;;;;;;5214769;28;20025;-78
2021/03/05 09:54:35;;;;;;;5.80;1.90;;;20.10;51.50;;;;;;5213088;28;20551;-78
2021/03/05 09:57:06;;;;;;;5.97;2.00;;;20.10;50.70;;;;;;5195615;28;20492;-79
2021/03/05 09:59:47;;;;;;;6.15;2.20;;;20.00;50.60;;;;;;5212773;28;20021;-78
2021/03/05 10:02:22;;;;;;;5.88;2.05;;;19.90;50.50;;;;;;5193478;28;20113;-78
2021/03/05 10:04:52;;;;;;;5.40;1.97;;;19.90;50.00;;;;;;5212359;28;20029;-79
2021/03/05 10:07:22;;;;;;;5.90;1.73;;;19.80;50.10;;;;;;5212941;28;20038;-78
2021/03/05 10:10:08;;;;;;;9.32;1.95;;;19.80;50.00;;;;;;5197579;28;20036;-77
2021/03/05 10:12:39;;;;;;;4.50;1.38;;;19.80;49.90;;;;;;5219218;28;20025;-78
2021/03/05 10:15:10;;;;;;;5.13;1.50;;;19.70;50.30;;;;;;5220007;28;20044;-78
2021/03/05 10:17:40;;;;;;;4.25;1.45;;;19.70;49.20;;;;;;5216194;28;20391;-79
2021/03/05 10:20:11;;;;;;;6.20;1.58;;;19.70;50.40;;;;;;5197146;28;20040;-77
2021/03/05 10:22:42;;;;;;;3.05;1.40;;;19.70;50.20;;;;;;5221864;28;20436;-78
2021/03/05 10:25:13;;;;;;;4.93;1.90;;;19.70;50.00;;;;;;5221906;28;20037;-79
2021/03/05 10:27:43;;;;;;;5.57;1.73;;;19.70;50.00;;;;;;5215434;28;20053;-78
2021/03/05 10:30:14;;;;;;;3.83;1.35;;;19.80;50.30;;;;;;5223312;28;20049;-79
2021/03/05 10:32:47;;;;;;;3.83;1.50;;;19.70;50.40;;;;;;5210392;28;20030;-78
2021/03/05 10:35:18;;;;;;;5.03;1.30;;;19.70;50.10;;;;;;5223449;28;20017;-78
2021/03/05 10:37:50;;;;;;;3.85;1.33;;;19.80;50.20;;;;;;5229887;28;20076;-80
2021/03/05 10:40:21;;;;;;;12.00;2.08;;;19.80;50.40;;;;;;5216163;28;20025;-79
2021/03/05 10:42:51;;;;;;;98.90;13.70;;;19.60;49.50;;;;;;5210379;28;20108;-80
2021/03/05 10:45:22;;;;;;;40.10;5.85;;;19.60;53.00;;;;;;5190847;28;20484;-80
2021/03/05 10:47:53;;;;;;;37.78;5.40;;;19.50;52.60;;;;;;5194699;28;20044;-79
2021/03/05 10:50:23;;;;;;;21.58;3.83;;;19.50;53.40;;;;;;5211253;28;20047;-80
2021/03/05 10:52:54;;;;;;;12.80;3.25;;;19.60;53.00;;;;;;5226740;28;20565;-80
2021/03/05 10:55:24;;;;;;;16.95;3.58;;;19.60;53.20;;;;;;5227912;28;20080;-79
2021/03/05 10:57:55;;;;;;;16.83;3.03;;;19.60;52.10;;;;;;5227636;28;20113;-80
2021/03/05 11:00:25;;;;;;;16.50;3.08;;;19.60;51.60;;;;;;5210360;28;20029;-79
2021/03/05 11:02:56;;;;;;;10.68;2.40;;;19.60;51.80;;;;;;5209842;28;20033;-80
2021/03/05 11:05:27;;;;;;;17.08;3.10;;;19.60;51.60;;;;;;5228055;28;20459;-79
2021/03/05 11:07:57;;;;;;;11.50;2.78;;;19.60;51.50;;;;;;5227564;28;20035;-80
2021/03/05 11:10:28;;;;;;;10.55;2.63;;;19.60;52.00;;;;;;5211226;28;20036;-80
2021/03/05 11:12:58;;;;;;;10.70;2.60;;;19.60;51.40;;;;;;5209386;28;20041;-79
2021/03/05 11:15:29;;;;;;;10.80;2.20;;;19.60;51.20;;;;;;5202725;28;20115;-80
2021/03/05 11:17:59;;;;;;;11.75;2.35;;;19.70;51.10;;;;;;5209208;28;20065;-80
2021/03/05 11:20:30;;;;;;;7.28;2.00;;;19.70;51.00;;;;;;5203608;28;20029;-79
2021/03/05 11:23:00;;;;;;;6.53;2.15;;;19.70;50.40;;;;;;5214456;28;20025;-80
2021/03/05 11:25:31;;;;;;;7.68;1.88;;;19.70;50.70;;;;;;5211673;28;20030;-80
2021/03/05 11:28:01;;;;;;;8.23;2.15;;;19.70;50.10;;;;;;5202490;28;20032;-81
2021/03/05 11:30:32;;;;;;;6.82;1.75;;;19.70;50.70;;;;;;5219221;28;20083;-82
2021/03/05 11:33:03;;;;;;;4.40;1.63;;;19.60;50.50;;;;;;5222035;28;20045;-81
2021/03/05 11:35:33;;;;;;;4.80;1.58;;;19.40;49.70;;;;;;5201264;28;20066;-80
2021/03/05 11:38:04;;;;;;;6.20;1.60;;;19.40;48.30;;;;;;5214113;28;20036;-79
2021/03/05 11:40:35;;;;;;;2.67;1.50;;;19.30;48.70;;;;;;5216966;28;20029;-79
2021/03/05 11:43:05;;;;;;;6.15;1.20;;;19.30;48.10;;;;;;5211737;28;20121;-79
2021/03/05 11:45:36;;;;;;;8.18;1.63;;;19.20;47.80;;;;;;5197609;28;20415;-81
2021/03/05 11:48:07;;;;;;;3.83;1.20;;;19.10;48.20;;;;;;5198703;28;20022;-80
2021/03/05 11:50:37;;;;;;;4.97;1.27;;;19.00;48.00;;;;;;5208000;28;20794;-80
2021/03/05 11:53:08;;;;;;;5.45;1.50;;;19.10;48.10;;;;;;5205820;28;20041;-81
2021/03/05 11:55:38;;;;;;;5.47;1.48;;;19.00;48.10;;;;;;5215158;28;20093;-80
2021/03/05 11:58:09;;;;;;;7.18;1.52;;;19.00;47.30;;;;;;5197669;28;20052;-83
2021/03/05 12:00:39;;;;;;;4.03;1.35;;;19.00;47.50;;;;;;5210634;28;20515;-82
2021/03/05 12:03:10;;;;;;;4.63;1.25;;;19.00;47.00;;;;;;5206900;28;20029;-81
2021/03/05 12:05:40;;;;;;;6.00;1.65;;;19.00;48.70;;;;;;5196198;28;20438;-81
2021/03/05 12:08:11;;;;;;;3.83;1.30;;;19.00;48.50;;;;;;5213455;28;20033;-81
2021/03/05 12:10:41;;;;;;;5.30;1.40;;;19.10;49.00;;;;;;5208299;28;20041;-81
2021/03/05 12:13:12;;;;;;;2.28;1.20;;;19.30;48.90;;;;;;5208611;28;20025;-79
2021/03/05 12:15:42;;;;;;;4.88;1.50;;;19.40;49.00;;;;;;5212293;28;20052;-81
2021/03/05 12:18:13;;;;;;;5.43;1.88;;;19.40;46.60;;;;;;5210003;28;20040;-78
2021/03/05 12:20:43;;;;;;;3.30;1.50;;;19.30;47.80;;;;;;5209993;28;20029;-78
2021/03/05 12:23:14;;;;;;;3.53;1.42;;;19.30;48.00;;;;;;5219889;28;20033;-81
2021/03/05 12:25:44;;;;;;;4.60;1.30;;;19.20;48.10;;;;;;5208902;28;20487;-75
2021/03/05 12:28:15;;;;;;;4.00;1.10;;;19.20;47.20;;;;;;5223833;28;20037;-79
2021/03/05 12:30:46;;;;;;;4.97;1.30;;;19.10;45.90;;;;;;5214098;28;20673;-82
2021/03/05 12:33:16;;;;;;;3.35;1.10;;;18.90;46.10;;;;;;5194588;28;20032;-81
2021/03/05 12:35:47;;;;;;;2.28;1.00;;;19.00;47.90;;;;;;5212148;28;20124;-82
2021/03/05 12:38:18;;;;;;;2.72;1.23;;;19.00;47.10;;;;;;5227356;28;20112;-82
2021/03/05 12:40:48;;;;;;;3.08;1.20;;;19.10;46.70;;;;;;5225015;28;20476;-80
2021/03/05 12:43:19;;;;;;;2.75;1.30;;;19.00;47.00;;;;;;5227984;28;20033;-81
2021/03/05 12:45:50;;;;;;;2.22;1.13;;;18.90;47.00;;;;;;5212905;28;20096;-81
2021/03/05 12:48:20;;;;;;;3.63;0.93;;;19.00;47.20;;;;;;5210956;28;20491;-78
2021/03/05 12:50:51;;;;;;;2.75;1.10;;;18.90;45.60;;;;;;5205922;28;20542;-79
2021/03/05 12:53:21;;;;;;;4.03;1.10;;;18.90;46.90;;;;;;5225100;28;20491;-78
2021/03/05 12:55:52;;;;;;;3.53;1.00;;;18.80;46.60;;;;;;5212628;28;20487;-77
2021/03/05 12:58:22;;;;;;;2.55;1.00;;;18.90;46.50;;;;;;5225592;28;20032;-78
2021/03/05 13:00:53;;;;;;;1.65;0.90;;;19.00;45.60;;;;;;5210231;28;20064;-80
2021/03/05 13:03:23;;;;;;;3.58;0.85;;;19.00;45.90;;;;;;5226878;28;20081;-78
2021/03/05 13:05:54;;;;;;;3.08;1.00;;;18.90;44.30;;;;;;5208008;28;20025;-79
2021/03/05 13:08:25;;;;;;;1.70;0.88;;;18.70;45.70;;;;;;5192469;28;20030;-78
2021/03/05 13:10:56;;;;;;;4.28;0.90;;;19.10;46.40;;;;;;5193742;28;20036;-80